createdAt,value
2018-08-18T00:00:58.255Z,102221.23
2018-08-18T00:03:29.370Z,102215.23
2018-08-18T00:06:00.191Z,102222.56
2018-08-18T00:08:33.484Z,102222.56
2018-08-18T00:11:03.945Z,102220.52
2018-08-18T00:13:52.687Z,102220.37
2018-08-18T00:16:27.715Z,102214.02
2018-08-18T00:19:00.271Z,102227.66
2018-08-18T00:21:34.157Z,102219.45
2018-08-18T00:24:11.228Z,102222.46
2018-08-18T00:26:41.890Z,102224.09
2018-08-18T00:29:11.512Z,102197.56
2018-08-18T00:31:44.804Z,102222.31
2018-08-18T00:34:16.110Z,102219.45
2018-08-18T00:36:46.609Z,102215.34
2018-08-18T00:39:16.095Z,102216.11
2018-08-18T00:41:45.378Z,102218.42
2018-08-18T00:44:18.246Z,102220.30
2018-08-18T00:46:47.071Z,102220.59
2018-08-18T00:49:15.712Z,102220.67
2018-08-18T00:51:44.661Z,102210.90
2018-08-18T00:54:15.101Z,102211.61
2018-08-18T00:56:44.918Z,102215.11
2018-08-18T00:59:14.136Z,102216.58
2018-08-18T01:01:45.718Z,102220.98
2018-08-18T01:04:14.938Z,102214.61
2018-08-18T01:06:44.472Z,102215.56
2018-08-18T01:09:16.970Z,102222.38
2018-08-18T01:11:48.650Z,102223.92
2018-08-18T01:14:22.268Z,102228.12
2018-08-18T01:19:29.438Z,102228.35
2018-08-18T01:22:02.770Z,102229.70
2018-08-18T01:24:33.994Z,102225.58
2018-08-18T01:27:08.812Z,102226.20
2018-08-18T01:29:39.278Z,102228.92
2018-08-18T01:32:09.025Z,102230.61
2018-08-18T01:34:37.885Z,102224.48
2018-08-18T01:37:20.289Z,102223.79
2018-08-18T01:39:53.051Z,102222.23
2018-08-18T01:42:24.128Z,102230.69
2018-08-18T01:44:55.519Z,102234.50
2018-08-18T01:47:26.135Z,102235.52
2018-08-18T01:49:58.916Z,102238.31
2018-08-18T01:52:28.434Z,102238.88
2018-08-18T01:54:58.139Z,102239.25
2018-08-18T01:57:27.655Z,102234.58
2018-08-18T01:59:57.072Z,102230.70
2018-08-18T02:02:28.304Z,102230.62
2018-08-18T02:05:09.202Z,102226.34
2018-08-18T02:07:38.632Z,102223.94
2018-08-18T02:10:11.822Z,102230.53
2018-08-18T02:12:51.003Z,102230.84
2018-08-18T02:15:20.739Z,102233.97
2018-08-18T02:17:51.275Z,102229.23
2018-08-18T02:20:21.971Z,102221.77
2018-08-18T02:22:53.176Z,102227.91
2018-08-18T02:25:22.435Z,102230.07
2018-08-18T02:27:53.588Z,102228.27
2018-08-18T02:30:24.449Z,102228.20
2018-08-18T02:32:57.916Z,102225.11
2018-08-18T02:35:27.864Z,102222.09
2018-08-18T02:37:57.733Z,102219.12
2018-08-18T02:43:08.191Z,102220.77
2018-08-18T02:45:37.057Z,102215.78
2018-08-18T02:48:16.561Z,102208.09
2018-08-18T02:51:01.225Z,102206.18
2018-08-18T02:53:30.058Z,102211.20
2018-08-18T02:56:00.116Z,102212.31
2018-08-18T02:58:36.768Z,102207.80
2018-08-18T03:01:06.877Z,102208.19
2018-08-18T03:03:35.609Z,102213.52
2018-08-18T03:06:11.820Z,102214.23
2018-08-18T03:08:41.850Z,102210.36
2018-08-18T03:11:11.568Z,102208.56
2018-08-18T03:13:40.483Z,102205.86
2018-08-18T03:16:11.729Z,102211.45
2018-08-18T03:18:52.831Z,102210.35
2018-08-18T03:21:32.806Z,102213.86
2018-08-18T03:24:15.938Z,102213.47
2018-08-18T03:26:48.181Z,102216.41
2018-08-18T03:29:21.729Z,102211.05
2018-08-18T03:31:51.531Z,102213.77
2018-08-18T03:34:20.552Z,102209.81
2018-08-18T03:36:56.350Z,102210.28
2018-08-18T03:39:32.373Z,102213.05
2018-08-18T03:42:04.044Z,102214.38
2018-08-18T03:44:44.658Z,102210.58
2018-08-18T03:47:13.322Z,102211.50
2018-08-18T03:49:43.418Z,102211.17
2018-08-18T03:52:12.244Z,102209.70
2018-08-18T03:54:40.871Z,102210.94
2018-08-18T03:57:09.759Z,102211.49
2018-08-18T03:59:38.708Z,102220.25
2018-08-18T04:02:07.763Z,102216.29
2018-08-18T04:04:39.356Z,102214.05
2018-08-18T04:07:08.759Z,102214.17
2018-08-18T04:09:38.747Z,102213.70
2018-08-18T04:12:09.749Z,102212.01
2018-08-18T04:14:42.195Z,102214.09
2018-08-18T04:17:28.634Z,102216.05
2018-08-18T04:19:58.370Z,102219.28
2018-08-18T04:22:27.064Z,102221.56
2018-08-18T04:24:57.318Z,102220.02
2018-08-18T04:27:44.142Z,102217.42
2018-08-18T04:30:19.219Z,102226.28
2018-08-18T04:32:58.298Z,102225.34
2018-08-18T04:35:30.604Z,102219.83
2018-08-18T04:38:03.811Z,102220.31
2018-08-18T04:40:37.136Z,102230.11
2018-08-18T04:43:10.700Z,102224.02
2018-08-18T04:45:41.167Z,102232.27
2018-08-18T04:48:17.581Z,102228.02
2018-08-18T04:50:47.749Z,102231.80
2018-08-18T04:53:18.319Z,102235.55
2018-08-18T04:55:47.139Z,102226.07
2018-08-18T04:58:15.831Z,102227.49
2018-08-18T05:00:44.565Z,102224.53
2018-08-18T05:03:14.007Z,102224.80
2018-08-18T05:05:42.721Z,102222.23
2018-08-18T05:08:12.860Z,102225.84
2018-08-18T05:10:42.668Z,102221.91
2018-08-18T05:13:11.898Z,102229.63
2018-08-18T05:15:40.540Z,102230.14
2018-08-18T05:18:09.159Z,102231.95
2018-08-18T05:20:44.682Z,102231.76
2018-08-18T05:23:26.834Z,102236.87
2018-08-18T05:25:56.895Z,102236.40
2018-08-18T05:28:25.841Z,102240.70
2018-08-18T05:30:56.240Z,102237.03
2018-08-18T05:33:26.987Z,102239.23
2018-08-18T05:35:55.576Z,102235.95
2018-08-18T05:38:24.196Z,102244.30
2018-08-18T05:40:54.080Z,102243.49
2018-08-18T05:43:23.046Z,102241.48
2018-08-18T05:45:52.555Z,102247.71
2018-08-18T05:48:22.485Z,102253.05
2018-08-18T05:50:56.980Z,102253.39
2018-08-18T05:53:27.889Z,102258.25
2018-08-18T05:55:57.182Z,102253.20
2018-08-18T05:58:26.809Z,102247.95
2018-08-18T06:01:00.774Z,102255.33
2018-08-18T06:03:30.188Z,102261.06
2018-08-18T06:06:01.323Z,102259.83
2018-08-18T06:08:30.916Z,102263.39
2018-08-18T06:11:00.942Z,102263.38
2018-08-18T06:13:30.212Z,102267.98
2018-08-18T06:16:11.544Z,102266.10
2018-08-18T06:18:41.574Z,102274.00
2018-08-18T06:21:12.547Z,102272.23
2018-08-18T06:23:42.639Z,102266.69
2018-08-18T06:26:11.053Z,102259.52
2018-08-18T06:28:39.919Z,102260.13
2018-08-18T06:31:08.646Z,102256.38
2018-08-18T06:33:38.961Z,102262.55
2018-08-18T06:36:07.780Z,102258.27
2018-08-18T06:38:37.475Z,102257.92
2018-08-18T06:41:08.971Z,102221.50
2018-08-18T06:43:40.583Z,102258.09
2018-08-18T06:46:09.527Z,102258.50
2018-08-18T06:48:38.783Z,102258.48
2018-08-18T06:51:09.534Z,102258.09
2018-08-18T06:53:45.744Z,102250.59
2018-08-18T06:56:15.091Z,102260.48
2018-08-18T06:58:44.679Z,102261.18
2018-08-18T07:01:12.985Z,102263.05
2018-08-18T07:03:45.271Z,102258.20
2018-08-18T07:06:15.474Z,102258.55
2018-08-18T07:08:49.708Z,102260.81
2018-08-18T07:11:19.769Z,102260.81
2018-08-18T07:13:48.950Z,102263.23
2018-08-18T07:16:18.255Z,102258.90
2018-08-18T07:18:47.591Z,102266.30
2018-08-18T07:21:19.216Z,102258.34
2018-08-18T07:23:48.028Z,102261.08
2018-08-18T07:26:17.503Z,102265.16
2018-08-18T07:28:47.805Z,102268.04
2018-08-18T07:31:17.153Z,102272.47
2018-08-18T07:33:46.123Z,102271.13
2018-08-18T07:36:15.440Z,102269.14
2018-08-18T07:38:44.509Z,102278.92
2018-08-18T07:41:13.283Z,102279.28
2018-08-18T07:43:43.901Z,102278.73
2018-08-18T07:46:13.616Z,102278.42
2018-08-18T07:48:45.973Z,102281.05
2018-08-18T07:51:15.466Z,102275.44
2018-08-18T07:53:44.151Z,102276.45
2018-08-18T07:56:12.908Z,102274.36
2018-08-18T07:58:41.837Z,102277.98
2018-08-18T08:01:10.440Z,102279.49
2018-08-18T08:03:39.062Z,102274.43
2018-08-18T08:06:08.361Z,102279.60
2018-08-18T08:08:43.514Z,102272.04
2018-08-18T08:11:14.046Z,102274.98
2018-08-18T08:13:42.974Z,102272.52
2018-08-18T08:16:11.965Z,102275.20
2018-08-18T08:18:40.682Z,102269.16
2018-08-18T08:21:10.121Z,102275.99
2018-08-18T08:23:38.648Z,102269.41
2018-08-18T08:26:07.735Z,102279.87
2018-08-18T08:28:36.721Z,102270.83
2018-08-18T08:31:07.471Z,102279.01
2018-08-18T08:33:38.713Z,102270.63
2018-08-18T08:36:13.105Z,102272.95
2018-08-18T08:38:55.977Z,102269.98
2018-08-18T08:41:27.544Z,102277.07
2018-08-18T08:43:56.984Z,102276.50
2018-08-18T08:46:25.936Z,102274.52
2018-08-18T08:49:01.949Z,102280.28
2018-08-18T08:51:30.989Z,102288.01
2018-08-18T08:54:00.278Z,102288.62
2018-08-18T08:56:44.689Z,102290.59
2018-08-18T08:59:13.534Z,102284.92
2018-08-18T09:04:18.569Z,102290.18
2018-08-18T09:06:52.880Z,102292.39
2018-08-18T09:09:22.476Z,102293.26
2018-08-18T09:11:51.088Z,102293.15
2018-08-18T09:14:20.761Z,102291.20
2018-08-18T09:16:49.867Z,102297.72
2018-08-18T09:19:21.321Z,102296.27
2018-08-18T09:21:53.195Z,102296.84
2018-08-18T09:24:24.772Z,102306.09
2018-08-18T09:26:55.904Z,102297.25
2018-08-18T09:29:25.670Z,102294.18
2018-08-18T09:31:56.752Z,102288.52
2018-08-18T09:34:25.326Z,102286.55
2018-08-18T09:36:54.739Z,102286.88
2018-08-18T09:39:31.874Z,102289.87
2018-08-18T09:42:02.299Z,102286.77
2018-08-18T09:44:34.243Z,102290.69
2018-08-18T09:47:03.415Z,102269.88
2018-08-18T09:49:32.075Z,102292.95
2018-08-18T09:52:02.121Z,102290.36
2018-08-18T09:54:31.804Z,102277.81
2018-08-18T09:57:04.551Z,102284.40
2018-08-18T09:59:34.318Z,102295.47
2018-08-18T10:02:04.363Z,102285.81
2018-08-18T10:04:34.959Z,102288.77
2018-08-18T10:09:39.005Z,102285.41
2018-08-18T10:12:08.723Z,102283.03
2018-08-18T10:14:37.523Z,102284.56
2018-08-18T10:17:07.191Z,102280.17
2018-08-18T10:19:36.130Z,102282.98
2018-08-18T10:22:06.969Z,102286.73
2018-08-18T10:24:35.538Z,102290.08
2018-08-18T10:27:07.821Z,102282.98
2018-08-18T10:29:37.420Z,102281.25
2018-08-18T10:32:07.924Z,102276.45
2018-08-18T10:34:37.338Z,102285.05
2018-08-18T10:37:07.534Z,102281.67
2018-08-18T10:39:38.110Z,102274.95
2018-08-18T10:42:15.893Z,102277.94
2018-08-18T10:44:53.555Z,102286.98
2018-08-18T10:47:24.841Z,102262.91
2018-08-18T10:51:24.435Z,102270.89
2018-08-18T10:53:54.116Z,102272.27
2018-08-18T10:56:23.691Z,102273.16
2018-08-18T10:59:15.113Z,102272.50
2018-08-18T11:02:05.254Z,102284.27
2018-08-18T11:04:35.256Z,102275.16
2018-08-18T11:07:05.560Z,102283.47
2018-08-18T11:09:34.103Z,102276.20
2018-08-18T11:12:03.940Z,102279.83
2018-08-18T11:14:35.198Z,102283.77
2018-08-18T11:17:03.865Z,102277.31
2018-08-18T11:19:32.758Z,102267.81
2018-08-18T11:22:18.464Z,102270.70
2018-08-18T11:24:48.094Z,102267.59
2018-08-18T11:27:16.800Z,102278.55
2018-08-18T11:29:45.355Z,102277.63
2018-08-18T11:32:14.726Z,102272.73
2018-08-18T11:34:43.373Z,102268.74
2018-08-18T11:37:12.333Z,102262.16
2018-08-18T11:39:42.405Z,102259.70
2018-08-18T11:42:11.791Z,102263.23
2018-08-18T11:44:40.595Z,102252.70
2018-08-18T11:47:09.131Z,102256.59
2018-08-18T11:49:37.561Z,102259.16
2018-08-18T11:52:06.416Z,102270.31
2018-08-18T11:54:35.888Z,102276.83
2018-08-18T11:57:05.226Z,102267.02
2018-08-18T11:59:34.888Z,102266.64
2018-08-18T12:02:04.295Z,102268.34
2018-08-18T12:04:32.758Z,102269.88
2018-08-18T12:07:01.473Z,102265.07
2018-08-18T12:09:30.810Z,102270.14
2018-08-18T12:12:00.309Z,102264.08
2018-08-18T12:14:28.984Z,102266.12
2018-08-18T12:16:57.554Z,102269.10
2018-08-18T12:19:26.518Z,102266.03
2018-08-18T12:21:55.160Z,102273.72
2018-08-18T12:24:25.298Z,102266.86
2018-08-18T12:27:12.276Z,102271.69
2018-08-18T12:29:41.204Z,102279.74
2018-08-18T12:32:14.622Z,102273.90
2018-08-18T12:34:43.743Z,102271.92
2018-08-18T12:37:13.863Z,102274.02
2018-08-18T12:39:42.632Z,102268.28
2018-08-18T12:42:16.966Z,102260.23
2018-08-18T12:44:47.552Z,102263.27
2018-08-18T12:47:17.564Z,102259.17
2018-08-18T12:49:48.831Z,102264.00
2018-08-18T12:52:17.884Z,102261.93
2018-08-18T12:54:46.606Z,102269.00
2018-08-18T12:57:30.940Z,102263.33
2018-08-18T13:02:46.192Z,102261.17
2018-08-18T13:05:15.227Z,102257.23
2018-08-18T13:07:45.300Z,102248.70
2018-08-18T13:10:22.519Z,102259.70
2018-08-18T13:12:52.353Z,102259.32
2018-08-18T13:15:22.217Z,102254.39
2018-08-18T13:17:50.831Z,102251.89
2018-08-18T13:20:25.405Z,102254.67
2018-08-18T13:22:53.935Z,102254.24
2018-08-18T13:25:22.759Z,102252.12
2018-08-18T13:27:58.230Z,102256.16
2018-08-18T13:30:27.922Z,102254.75
2018-08-18T13:32:59.100Z,102247.09
2018-08-18T13:35:27.744Z,102247.56
2018-08-18T13:37:56.961Z,102250.45
2018-08-18T13:40:27.960Z,102249.25
2018-08-18T13:42:56.897Z,102241.23
2018-08-18T13:45:43.412Z,102252.48
2018-08-18T13:48:12.834Z,102248.73
2018-08-18T13:50:41.835Z,102246.98
2018-08-18T13:53:10.703Z,102252.53
2018-08-18T13:55:40.716Z,102249.02
2018-08-18T13:58:12.674Z,102246.41
2018-08-18T14:00:42.084Z,102246.81
2018-08-18T14:03:29.364Z,102248.08
2018-08-18T14:06:00.655Z,102245.50
2018-08-18T14:08:29.362Z,102248.98
2018-08-18T14:10:58.368Z,102242.00
2018-08-18T14:13:30.331Z,102244.35
2018-08-18T14:16:01.026Z,102247.63
2018-08-18T14:18:29.756Z,102244.58
2018-08-18T14:21:08.112Z,102248.09
2018-08-18T14:23:37.525Z,102243.56
2018-08-18T14:26:06.716Z,102246.71
2018-08-18T14:28:35.708Z,102240.73
2018-08-18T14:31:04.817Z,102247.03
2018-08-18T14:33:33.470Z,102249.34
2018-08-18T14:36:08.123Z,102244.91
2018-08-18T14:38:36.711Z,102240.67
2018-08-18T14:41:07.302Z,102247.08
2018-08-18T14:43:41.143Z,102238.19
2018-08-18T14:46:13.498Z,102243.50
2018-08-18T14:48:43.058Z,102241.70
2018-08-18T14:51:12.218Z,102246.14
2018-08-18T14:53:42.338Z,102243.84
2018-08-18T14:56:11.677Z,102245.05
2018-08-18T14:58:45.141Z,102244.67
2018-08-18T15:01:15.020Z,102243.91
2018-08-18T15:03:44.716Z,102250.04
2018-08-18T15:06:15.613Z,102244.58
2018-08-18T15:08:45.241Z,102237.94
2018-08-18T15:11:15.070Z,102230.23
2018-08-18T15:13:44.672Z,102230.56
2018-08-18T15:16:14.790Z,102222.80
2018-08-18T15:18:44.180Z,102225.28
2018-08-18T15:21:13.510Z,102224.23
2018-08-18T15:23:42.139Z,102215.18
2018-08-18T15:26:12.400Z,102226.75
2018-08-18T15:28:42.573Z,102218.58
2018-08-18T15:31:11.033Z,102229.26
2018-08-18T15:33:39.639Z,102226.71
2018-08-18T15:36:26.237Z,102221.61
2018-08-18T15:38:55.897Z,102228.73
2018-08-18T15:41:25.775Z,102227.32
2018-08-18T15:43:55.679Z,102219.41
2018-08-18T15:46:25.066Z,102222.63
2018-08-18T15:48:54.085Z,102214.14
2018-08-18T15:51:22.981Z,102221.33
2018-08-18T15:53:54.908Z,102218.86
2018-08-18T15:56:24.747Z,102215.64
2018-08-18T15:58:54.222Z,102212.32
2018-08-18T16:01:25.303Z,102216.67
2018-08-18T16:03:56.523Z,102212.13
2018-08-18T16:06:26.415Z,102211.80
2018-08-18T16:08:55.482Z,102214.88
2018-08-18T16:11:25.886Z,102206.80
2018-08-18T16:13:57.129Z,102209.02
2018-08-18T16:16:28.567Z,102212.84
2018-08-18T16:19:04.203Z,102200.50
2018-08-18T16:21:35.138Z,102207.56
2018-08-18T16:24:05.833Z,102200.94
2018-08-18T16:26:35.571Z,102205.86
2018-08-18T16:29:04.315Z,102206.59
2018-08-18T16:31:34.850Z,102210.25
2018-08-18T16:34:04.641Z,102209.66
2018-08-18T16:36:38.947Z,102208.77
2018-08-18T16:39:11.913Z,102201.84
2018-08-18T16:41:42.040Z,102202.28
2018-08-18T16:44:11.227Z,102201.84
2018-08-18T16:46:39.714Z,102204.69
2018-08-18T16:49:09.394Z,102204.16
2018-08-18T16:51:40.018Z,102202.14
2018-08-18T16:54:23.029Z,102205.67
2018-08-18T16:56:52.960Z,102206.94
2018-08-18T16:59:23.036Z,102206.23
2018-08-18T17:01:55.955Z,102198.78
2018-08-18T17:04:32.583Z,102211.77
2018-08-18T17:07:05.997Z,102212.19
2018-08-18T17:09:41.403Z,102210.48
2018-08-18T17:12:21.412Z,102210.85
2018-08-18T17:14:51.186Z,102206.56
2018-08-18T17:17:22.454Z,102210.53
2018-08-18T17:19:51.071Z,102214.49
2018-08-18T17:22:20.063Z,102213.67
2018-08-18T17:24:49.717Z,102215.33
2018-08-18T17:27:18.710Z,102217.55
2018-08-18T17:29:49.517Z,102222.89
2018-08-18T17:32:18.779Z,102216.32
2018-08-18T17:34:47.662Z,102228.42
2018-08-18T17:37:16.690Z,102224.00
2018-08-18T17:39:45.531Z,102224.09
2018-08-18T17:42:16.529Z,102220.83
2018-08-18T17:44:46.245Z,102225.11
2018-08-18T17:47:15.767Z,102228.06
2018-08-18T17:49:56.290Z,102224.55
2018-08-18T17:52:25.403Z,102229.44
2018-08-18T17:55:09.517Z,102229.47
2018-08-18T17:57:38.937Z,102229.59
2018-08-18T18:00:15.642Z,102227.52
2018-08-18T18:02:51.099Z,102229.74
2018-08-18T18:05:21.857Z,102223.88
2018-08-18T18:08:00.807Z,102223.00
2018-08-18T18:10:38.526Z,102228.09
2018-08-18T18:13:16.895Z,102223.77
2018-08-18T18:15:48.324Z,102227.78
2018-08-18T18:18:18.965Z,102229.71
2018-08-18T18:20:50.286Z,102226.55
2018-08-18T18:23:19.707Z,102228.73
2018-08-18T18:25:49.278Z,102225.22
2018-08-18T18:30:58.178Z,102240.69
2018-08-18T18:33:27.009Z,102237.17
2018-08-18T18:35:55.760Z,102231.55
2018-08-18T18:38:24.434Z,102233.25
2018-08-18T18:40:53.839Z,102235.31
2018-08-18T18:43:22.755Z,102232.00
2018-08-18T18:45:52.798Z,102231.66
2018-08-18T18:48:21.749Z,102232.48
2018-08-18T18:50:50.691Z,102228.13
2018-08-18T18:53:20.693Z,102231.90
2018-08-18T18:55:55.351Z,102233.25
2018-08-18T18:58:24.063Z,102244.07
2018-08-18T19:00:58.504Z,102245.05
2018-08-18T19:03:27.853Z,102244.07
2018-08-18T19:05:56.707Z,102242.63
2018-08-18T19:08:26.661Z,102247.44
2018-08-18T19:10:55.407Z,102249.25
2018-08-18T19:13:27.570Z,102252.39
2018-08-18T19:15:56.701Z,102246.69
2018-08-18T19:18:26.011Z,102250.48
2018-08-18T19:20:54.999Z,102247.92
2018-08-18T19:23:23.887Z,102250.98
2018-08-18T19:25:53.111Z,102250.15
2018-08-18T19:28:23.559Z,102247.83
2018-08-18T19:30:54.119Z,102253.55
2018-08-18T19:33:23.095Z,102261.78
2018-08-18T19:35:52.869Z,102258.78
2018-08-18T19:38:22.842Z,102261.66
2018-08-18T19:40:53.063Z,102263.13
2018-08-18T19:43:23.541Z,102258.52
2018-08-18T19:45:54.207Z,102258.11
2018-08-18T19:48:24.422Z,102263.77
2018-08-18T19:51:00.117Z,102267.52
2018-08-18T19:53:34.742Z,102272.00
2018-08-18T19:56:07.929Z,102267.87
2018-08-18T19:58:36.834Z,102271.38
2018-08-18T20:01:05.916Z,102268.58
2018-08-18T20:03:36.808Z,102270.92
2018-08-18T20:06:10.017Z,102265.09
2018-08-18T20:08:38.803Z,102276.84
2018-08-18T20:11:07.824Z,102272.26
2018-08-18T20:13:36.298Z,102275.85
2018-08-18T20:16:05.948Z,102279.38
2018-08-18T20:18:34.651Z,102276.81
2018-08-18T20:21:05.176Z,102276.83
2018-08-18T20:23:34.668Z,102277.84
2018-08-18T20:26:04.004Z,102271.23
2018-08-18T20:28:33.195Z,102277.52
2018-08-18T20:31:01.898Z,102280.33
2018-08-18T20:33:32.032Z,102274.14
2018-08-18T20:36:01.081Z,102275.70
2018-08-18T20:38:35.516Z,102270.39
2018-08-18T20:41:04.198Z,102274.39
2018-08-18T20:43:32.786Z,102280.71
2018-08-18T20:46:02.130Z,102278.13
2018-08-18T20:48:30.962Z,102278.03
2018-08-18T20:50:59.647Z,102274.16
2018-08-18T20:53:29.169Z,102284.56
2018-08-18T20:55:59.977Z,102278.30
2018-08-18T20:58:30.337Z,102277.22
2018-08-18T21:01:00.511Z,102274.42
2018-08-18T21:03:46.251Z,102285.47
2018-08-18T21:06:15.959Z,102278.80
2018-08-18T21:08:44.650Z,102274.31
2018-08-18T21:11:13.523Z,102275.89
2018-08-18T21:13:42.335Z,102278.31
2018-08-18T21:16:11.024Z,102277.61
2018-08-18T21:18:40.782Z,102282.69
2018-08-18T21:21:44.064Z,102283.08
2018-08-18T21:24:12.738Z,102279.66
2018-08-18T21:26:41.163Z,102278.92
2018-08-18T21:29:12.097Z,102278.77
2018-08-18T21:31:40.779Z,102277.66
2018-08-18T21:34:09.541Z,102272.12
2018-08-18T21:36:38.310Z,102275.77
2018-08-18T21:39:09.250Z,102272.02
2018-08-18T21:41:43.553Z,102268.13
2018-08-18T21:44:13.644Z,102273.22
2018-08-18T21:46:42.687Z,102272.38
2018-08-18T21:49:12.136Z,102280.27
2018-08-18T21:51:41.815Z,102278.40
2018-08-18T21:54:10.774Z,102277.59
2018-08-18T21:56:41.774Z,102274.66
2018-08-18T21:59:11.746Z,102279.36
2018-08-18T22:01:40.793Z,102278.05
2018-08-18T22:04:09.778Z,102281.80
2018-08-18T22:06:38.618Z,102280.45
2018-08-18T22:09:30.094Z,102288.58
2018-08-18T22:11:58.699Z,102290.37
2018-08-18T22:14:34.534Z,102290.01
2018-08-18T22:17:03.276Z,102293.36
2018-08-18T22:19:32.192Z,102294.59
2018-08-18T22:22:00.962Z,102293.03
2018-08-18T22:24:29.726Z,102291.97
2018-08-18T22:26:59.309Z,102296.11
2018-08-18T22:29:27.927Z,102289.78
2018-08-18T22:31:56.738Z,102291.61
2018-08-18T22:34:25.433Z,102297.39
2018-08-18T22:37:01.923Z,102293.39
2018-08-18T22:39:30.689Z,102298.27
2018-08-18T22:41:59.294Z,102293.03
2018-08-18T22:44:27.992Z,102285.73
2018-08-18T22:46:56.798Z,102294.45
2018-08-18T22:49:25.358Z,102286.37
2018-08-18T22:51:54.334Z,102287.70
2018-08-18T22:54:23.034Z,102286.90
2018-08-18T22:56:57.315Z,102283.16
2018-08-18T22:59:26.284Z,102279.62
2018-08-18T23:01:55.098Z,102277.92
2018-08-18T23:04:31.897Z,102272.28
2018-08-18T23:07:01.752Z,102271.33
2018-08-18T23:09:30.935Z,102278.25
2018-08-18T23:12:02.867Z,102275.98
2018-08-18T23:14:34.279Z,102282.39
2018-08-18T23:17:03.326Z,102274.13
2018-08-18T23:19:33.017Z,102269.93
2018-08-18T23:22:03.353Z,102268.59
2018-08-18T23:24:38.000Z,102266.09
2018-08-18T23:27:06.771Z,102271.56
2018-08-18T23:29:36.961Z,102273.97
2018-08-18T23:32:16.154Z,102268.27
2018-08-18T23:34:44.821Z,102267.70
2018-08-18T23:37:19.667Z,102273.63
2018-08-18T23:39:54.185Z,102272.16
2018-08-18T23:42:25.425Z,102281.67
2018-08-18T23:44:54.153Z,102274.19
2018-08-18T23:47:22.920Z,102276.50
2018-08-18T23:49:51.589Z,102269.73
2018-08-18T23:52:20.399Z,102267.53
2018-08-18T23:54:48.955Z,102269.81
2018-08-18T23:57:18.133Z,102272.17
2018-08-18T23:59:47.082Z,102259.84
